Time;durP1;ratioP1;P1;durP2;ratioP2;P2;SDS_P1;SDS_P2;PMS_P1;PMS_P2;Temp;Humidity;BMP_temperature;BMP_pressure;BME280_temperature;BME280_humidity;BME280_pressure;Samples;Min_cycle;Max_cycle;Signal;HPM_P1;HPM_P2
2022/10/26 00:02:22;;;;;;;20.48;11.43;;;10.70;99.90;;;;;;6340458;22;20371;-78
2022/10/26 00:04:48;;;;;;;28.42;11.18;;;10.70;99.90;;;;;;6312584;22;20450;-78
2022/10/26 00:07:13;;;;;;;21.23;11.32;;;10.70;99.90;;;;;;6339909;22;20089;-79
2022/10/26 00:09:39;;;;;;;22.75;10.93;;;10.70;99.90;;;;;;6312448;22;20019;-79
2022/10/26 00:12:05;;;;;;;22.88;11.07;;;10.70;99.90;;;;;;6340345;22;20085;-79
2022/10/26 00:14:30;;;;;;;23.50;11.02;;;10.70;99.90;;;;;;6312327;22;20407;-79
2022/10/26 00:16:56;;;;;;;20.45;11.15;;;10.60;99.90;;;;;;6339906;22;20101;-79
2022/10/26 00:19:22;;;;;;;21.20;12.48;;;10.60;99.90;;;;;;6339927;22;20045;-79
2022/10/26 00:21:48;;;;;;;22.30;11.57;;;10.60;99.90;;;;;;6339802;22;20097;-79
2022/10/26 00:24:14;;;;;;;19.55;10.70;;;10.50;99.90;;;;;;6340295;22;20038;-79
2022/10/26 00:26:39;;;;;;;22.65;10.70;;;10.60;99.90;;;;;;6312226;22;20015;-79
2022/10/26 00:29:06;;;;;;;20.00;10.85;;;10.50;99.90;;;;;;6312314;22;20033;-79
2022/10/26 00:31:32;;;;;;;20.65;11.85;;;10.50;99.90;;;;;;6340242;22;20019;-79
2022/10/26 00:33:57;;;;;;;19.58;11.35;;;10.40;99.90;;;;;;6340197;22;20007;-79
2022/10/26 00:36:24;;;;;;;18.42;10.68;;;10.50;99.90;;;;;;6340137;22;20011;-79
2022/10/26 00:38:53;;;;;;;22.50;11.70;;;10.40;99.90;;;;;;6339901;22;20043;-79
2022/10/26 00:41:21;;;;;;;22.27;10.80;;;10.50;99.90;;;;;;6339709;22;20053;-79
2022/10/26 00:43:47;;;;;;;18.80;10.32;;;10.40;99.90;;;;;;6340058;22;20022;-79
2022/10/26 00:46:24;;;;;;;21.33;11.63;;;10.40;99.90;;;;;;6312133;22;20022;-79
2022/10/26 00:48:57;;;;;;;24.13;11.70;;;10.50;99.90;;;;;;6340082;22;20021;-79
2022/10/26 00:51:41;;;;;;;;;;;10.40;99.90;;;;;;6340592;22;20090;-79
2022/10/26 00:54:10;;;;;;;;;;;10.40;99.90;;;;;;6340267;22;19922;-79
2022/10/26 00:56:36;;;;;;;24.98;11.18;;;10.40;99.90;;;;;;6339611;22;20326;-79
2022/10/26 00:59:05;;;;;;;21.98;10.48;;;10.40;99.90;;;;;;6339903;22;20038;-79
2022/10/26 01:01:33;;;;;;;19.95;9.95;;;10.30;99.90;;;;;;6339951;22;20014;-79
2022/10/26 01:03:59;;;;;;;20.35;10.07;;;10.40;99.90;;;;;;6339566;22;20551;-79
2022/10/26 01:06:27;;;;;;;18.15;10.50;;;10.40;99.90;;;;;;6311996;22;20046;-79
2022/10/26 01:08:53;;;;;;;23.38;10.35;;;10.30;99.90;;;;;;6311773;22;20015;-79
2022/10/26 01:11:19;;;;;;;21.80;10.05;;;10.30;99.90;;;;;;6339504;22;20046;-79
2022/10/26 01:13:46;;;;;;;22.73;10.15;;;10.30;99.90;;;;;;6339871;22;20018;-79
2022/10/26 01:16:57;;;;;;;19.05;9.57;;;10.30;99.90;;;;;;6339596;22;20350;-78
2022/10/26 01:19:23;;;;;;;18.98;10.00;;;10.30;99.90;;;;;;6339228;22;20347;-79
2022/10/26 01:22:05;;;;;;;17.77;9.40;;;10.30;99.90;;;;;;6339305;22;20472;-78
2022/10/26 01:24:49;;;;;;;16.73;9.73;;;10.20;99.90;;;;;;6339463;22;20304;-79
2022/10/26 01:27:27;;;;;;;18.17;9.70;;;10.20;99.90;;;;;;6339870;22;20022;-79
2022/10/26 01:30:15;;;;;;;20.55;10.25;;;10.30;99.90;;;;;;6311838;22;20022;-79
2022/10/26 01:33:08;;;;;;;16.60;9.93;;;10.30;99.90;;;;;;6339754;22;20019;-79
2022/10/26 01:35:36;;;;;;;16.90;10.03;;;10.20;99.90;;;;;;6311795;22;20011;-79
2022/10/26 01:38:13;;;;;;;16.63;9.45;;;10.20;99.90;;;;;;6339689;22;20060;-79
2022/10/26 01:40:59;;;;;;;16.67;8.43;;;10.10;99.90;;;;;;6339237;22;20466;-79
2022/10/26 01:43:31;;;;;;;21.10;9.50;;;10.10;99.90;;;;;;6339553;22;20022;-79
2022/10/26 01:45:57;;;;;;;17.27;9.13;;;10.10;99.90;;;;;;6340621;22;20034;-79
2022/10/26 01:48:26;;;;;;;18.63;10.05;;;10.10;99.90;;;;;;6339630;22;20018;-79
2022/10/26 01:50:53;;;;;;;19.65;9.43;;;10.10;99.90;;;;;;6339303;22;20050;-79
2022/10/26 01:53:19;;;;;;;19.08;9.93;;;10.10;99.90;;;;;;6339326;22;20025;-78
2022/10/26 01:55:48;;;;;;;17.98;8.80;;;10.10;99.90;;;;;;6311521;22;20007;-78
2022/10/26 01:58:38;;;;;;;17.20;9.52;;;10.00;99.90;;;;;;6339563;22;20060;-79
2022/10/26 02:01:43;;;;;;;19.23;8.95;;;10.00;99.90;;;;;;6311665;22;20097;-79
2022/10/26 02:04:39;;;;;;;18.95;9.40;;;10.00;99.90;;;;;;6339321;22;20026;-79
2022/10/26 02:07:49;;;;;;;22.48;9.55;;;10.00;99.90;;;;;;6311611;22;20086;-79
2022/10/26 02:10:33;;;;;;;18.63;9.43;;;9.90;99.90;;;;;;6339217;22;20495;-79
2022/10/26 02:13:09;;;;;;;20.15;9.60;;;9.90;99.90;;;;;;6311619;22;20046;-79
2022/10/26 02:15:55;;;;;;;18.50;10.23;;;9.90;99.90;;;;;;6339538;22;20025;-79
2022/10/26 02:18:43;;;;;;;18.80;10.23;;;9.90;99.90;;;;;;6339110;22;20443;-79
2022/10/26 02:21:16;;;;;;;21.17;10.32;;;9.90;99.90;;;;;;6339001;22;20010;-79
2022/10/26 02:23:45;;;;;;;19.17;9.65;;;9.90;99.90;;;;;;6339459;22;20011;-79
2022/10/26 02:26:13;;;;;;;21.10;10.05;;;9.90;99.90;;;;;;6339034;22;20490;-79
2022/10/26 02:28:46;;;;;;;19.17;10.00;;;9.80;99.90;;;;;;6311479;22;20064;-79
2022/10/26 02:31:13;;;;;;;18.65;10.35;;;9.80;99.90;;;;;;6340732;22;20007;-79
2022/10/26 02:33:44;;;;;;;18.80;10.25;;;9.80;99.90;;;;;;6313354;22;20021;-79
2022/10/26 02:36:15;;;;;;;19.60;9.82;;;9.70;99.90;;;;;;6340935;22;20312;-79
2022/10/26 02:38:42;;;;;;;19.73;11.13;;;9.70;99.90;;;;;;6313405;22;20018;-79
2022/10/26 02:41:10;;;;;;;18.55;9.70;;;9.70;99.90;;;;;;6341097;22;20021;-79
2022/10/26 02:43:43;;;;;;;18.75;9.98;;;9.70;99.90;;;;;;6313379;22;20010;-79
2022/10/26 02:46:13;;;;;;;17.27;10.65;;;9.70;99.90;;;;;;6340881;22;20015;-79
2022/10/26 02:48:39;;;;;;;20.58;10.70;;;9.60;99.90;;;;;;6341203;22;20022;-79
2022/10/26 02:51:33;;;;;;;22.13;10.52;;;9.60;99.90;;;;;;6313218;22;20018;-79
2022/10/26 02:54:20;;;;;;;18.90;10.73;;;9.60;99.90;;;;;;6328368;22;20446;-79
2022/10/26 02:56:58;;;;;;;17.02;10.45;;;9.60;99.90;;;;;;6313173;22;20320;-79
2022/10/26 02:59:27;;;;;;;19.77;10.07;;;9.60;99.90;;;;;;6313091;22;20014;-79
2022/10/26 03:01:54;;;;;;;19.33;10.65;;;9.60;99.90;;;;;;6341013;22;20029;-79
2022/10/26 03:04:19;;;;;;;20.58;11.35;;;9.50;99.90;;;;;;6313110;22;20434;-78
2022/10/26 03:06:54;;;;;;;16.90;10.60;;;9.50;99.90;;;;;;6341028;22;20041;-79
2022/10/26 03:09:20;;;;;;;18.02;11.65;;;9.50;99.90;;;;;;6312875;22;20056;-79
2022/10/26 03:11:45;;;;;;;20.33;12.10;;;9.50;99.90;;;;;;6340490;22;20015;-78
2022/10/26 03:14:11;;;;;;;23.08;12.93;;;9.50;99.90;;;;;;6340944;22;20007;-79
2022/10/26 03:16:37;;;;;;;21.90;12.30;;;9.60;99.90;;;;;;6340887;22;20014;-78
2022/10/26 03:19:02;;;;;;;22.30;12.50;;;9.50;99.90;;;;;;6340627;22;20109;-78
2022/10/26 03:21:28;;;;;;;23.33;12.18;;;9.50;99.90;;;;;;6340189;22;20018;-78
2022/10/26 03:23:54;;;;;;;20.35;11.98;;;9.50;99.90;;;;;;6341074;22;20050;-78
2022/10/26 03:26:19;;;;;;;23.70;12.55;;;9.60;99.90;;;;;;6340491;22;20045;-78
2022/10/26 03:28:45;;;;;;;22.55;12.70;;;9.50;99.90;;;;;;6340401;22;20045;-79
2022/10/26 03:31:11;;;;;;;24.83;12.85;;;9.50;99.90;;;;;;6312866;22;20023;-79
2022/10/26 03:33:36;;;;;;;20.40;12.60;;;9.50;99.90;;;;;;6340740;22;20438;-79
2022/10/26 03:36:02;;;;;;;24.70;12.13;;;9.50;99.90;;;;;;6341342;22;20015;-79
2022/10/26 03:38:28;;;;;;;21.67;12.60;;;9.50;99.90;;;;;;6340228;22;20331;-79
2022/10/26 03:40:53;;;;;;;22.48;12.10;;;9.50;99.90;;;;;;6340122;22;20018;-79
2022/10/26 03:43:19;;;;;;;21.42;12.52;;;9.50;99.90;;;;;;6312675;22;20484;-79
2022/10/26 03:45:45;;;;;;;21.95;12.55;;;9.40;99.90;;;;;;6340562;22;20010;-79
2022/10/26 03:48:10;;;;;;;22.65;12.55;;;9.50;99.90;;;;;;6340306;22;20089;-79
2022/10/26 03:50:36;;;;;;;22.77;12.52;;;9.50;99.90;;;;;;6340575;22;20042;-79
2022/10/26 03:53:02;;;;;;;24.95;12.82;;;9.50;99.90;;;;;;6340597;22;20038;-79
2022/10/26 03:55:27;;;;;;;22.20;13.50;;;9.50;99.90;;;;;;6340486;22;20434;-79
2022/10/26 03:57:53;;;;;;;23.27;12.25;;;9.50;99.90;;;;;;6312678;22;20018;-79
2022/10/26 04:00:19;;;;;;;22.33;12.65;;;9.40;99.90;;;;;;6312542;22;20442;-79
2022/10/26 04:02:52;;;;;;;25.48;12.35;;;9.40;99.90;;;;;;6340459;22;20090;-79
2022/10/26 04:05:18;;;;;;;20.20;12.68;;;9.40;99.90;;;;;;6340457;22;20060;-79
2022/10/26 04:07:43;;;;;;;22.63;12.27;;;9.50;99.90;;;;;;6340408;22;20380;-79
2022/10/26 04:10:09;;;;;;;22.23;12.85;;;9.40;99.90;;;;;;6340467;22;20014;-79
2022/10/26 04:12:38;;;;;;;21.85;12.65;;;9.40;99.90;;;;;;6312431;22;20014;-79
2022/10/26 04:15:05;;;;;;;21.67;12.27;;;9.40;99.90;;;;;;6312466;22;20450;-79
2022/10/26 04:17:31;;;;;;;26.95;12.73;;;9.40;99.90;;;;;;6312462;22;20025;-79
2022/10/26 04:19:57;;;;;;;25.00;13.13;;;9.40;99.90;;;;;;6311867;22;20411;-79
2022/10/26 04:22:22;;;;;;;24.45;13.52;;;9.50;99.90;;;;;;6340292;22;20462;-79
2022/10/26 04:24:48;;;;;;;23.40;12.88;;;9.40;99.90;;;;;;6340308;22;20094;-79
2022/10/26 04:27:14;;;;;;;24.40;12.77;;;9.40;99.90;;;;;;6340234;22;20079;-79
2022/10/26 04:29:40;;;;;;;22.67;13.50;;;9.40;99.90;;;;;;6339916;22;20448;-79
2022/10/26 04:32:06;;;;;;;20.63;12.73;;;9.50;99.90;;;;;;6340212;22;20010;-79
2022/10/26 04:34:32;;;;;;;24.05;13.63;;;9.50;99.90;;;;;;6312344;22;20430;-79
2022/10/26 04:36:57;;;;;;;21.08;12.52;;;9.50;99.90;;;;;;6339779;22;20350;-79
2022/10/26 04:39:24;;;;;;;25.90;14.60;;;9.50;99.90;;;;;;6312166;22;20509;-79
2022/10/26 04:41:50;;;;;;;23.05;13.57;;;9.50;99.90;;;;;;6339849;22;20025;-79
2022/10/26 04:44:15;;;;;;;26.80;14.02;;;9.60;99.90;;;;;;6339571;22;20019;-78
2022/10/26 04:46:41;;;;;;;27.15;14.48;;;9.60;99.90;;;;;;6339721;22;20468;-79
2022/10/26 04:49:06;;;;;;;24.75;14.60;;;9.60;99.90;;;;;;6312137;22;20019;-79
2022/10/26 04:51:32;;;;;;;25.70;13.90;;;9.60;99.90;;;;;;6312178;22;20014;-79
2022/10/26 04:53:58;;;;;;;26.20;13.95;;;9.60;99.90;;;;;;6339787;22;20021;-79
2022/10/26 04:56:23;;;;;;;28.90;14.40;;;9.60;99.90;;;;;;6311960;22;20061;-79
2022/10/26 04:58:52;;;;;;;20.98;13.88;;;9.70;99.90;;;;;;6340042;22;20015;-79
2022/10/26 05:01:17;;;;;;;22.17;12.70;;;9.70;99.90;;;;;;6339535;22;20469;-79
2022/10/26 05:03:43;;;;;;;28.25;12.98;;;9.70;99.90;;;;;;6339946;22;20085;-79
2022/10/26 05:06:08;;;;;;;26.00;13.20;;;9.70;99.90;;;;;;6340032;22;20017;-79
2022/10/26 05:08:34;;;;;;;21.17;13.35;;;9.70;99.90;;;;;;6311968;22;20015;-79
2022/10/26 05:10:59;;;;;;;23.67;14.02;;;9.70;99.90;;;;;;6339930;22;20500;-79
2022/10/26 05:13:25;;;;;;;23.45;13.57;;;9.70;99.90;;;;;;6339525;22;20034;-79
2022/10/26 05:15:54;;;;;;;24.42;14.00;;;9.70;99.90;;;;;;6339876;22;20522;-79
2022/10/26 05:18:19;;;;;;;25.48;13.48;;;9.80;99.90;;;;;;6339525;22;20029;-79
2022/10/26 05:20:45;;;;;;;23.58;13.63;;;9.70;99.90;;;;;;6339434;22;20018;-79
2022/10/26 05:23:11;;;;;;;24.50;12.93;;;9.80;99.90;;;;;;6311868;22;20015;-79
2022/10/26 05:25:37;;;;;;;23.30;13.25;;;9.80;99.90;;;;;;6311856;22;20019;-79
2022/10/26 05:28:06;;;;;;;21.05;13.68;;;9.80;99.90;;;;;;6339822;22;20042;-79
2022/10/26 05:30:32;;;;;;;27.55;14.65;;;9.80;99.90;;;;;;6311638;22;20341;-78
2022/10/26 05:33:01;;;;;;;25.70;14.30;;;9.80;99.90;;;;;;6311828;22;20454;-79
2022/10/26 05:35:28;;;;;;;26.77;14.55;;;9.80;99.90;;;;;;6339648;22;20094;-79
2022/10/26 05:37:53;;;;;;;26.10;14.18;;;9.80;99.90;;;;;;6339728;22;20015;-79
2022/10/26 05:40:53;;;;;;;23.73;13.65;;;9.80;99.90;;;;;;6339198;22;20091;-79
2022/10/26 05:43:26;;;;;;;24.80;14.13;;;9.80;99.90;;;;;;6309633;22;20389;-79
2022/10/26 05:45:52;;;;;;;24.38;14.25;;;9.80;99.90;;;;;;6311645;22;20010;-79
2022/10/26 05:48:18;;;;;;;29.63;15.70;;;9.90;99.90;;;;;;6339517;22;20085;-79
2022/10/26 05:50:44;;;;;;;26.20;15.73;;;9.90;99.90;;;;;;6339197;22;20094;-79
2022/10/26 05:53:10;;;;;;;28.25;15.13;;;9.90;99.90;;;;;;6339284;22;20080;-79
2022/10/26 05:55:36;;;;;;;25.40;14.63;;;10.00;99.90;;;;;;6339511;22;20369;-79
2022/10/26 05:58:02;;;;;;;30.83;16.63;;;10.00;99.90;;;;;;6339225;22;20021;-79
2022/10/26 06:00:29;;;;;;;36.72;20.15;;;10.00;99.90;;;;;;6339142;22;20019;-79
2022/10/26 06:03:26;;;;;;;30.17;17.25;;;10.00;99.90;;;;;;6311575;22;20423;-79
2022/10/26 06:05:57;;;;;;;29.17;17.45;;;10.00;99.90;;;;;;6340698;22;20037;-79
2022/10/26 06:08:25;;;;;;;28.77;16.77;;;10.00;99.90;;;;;;6341623;22;20017;-79
2022/10/26 06:10:53;;;;;;;29.33;16.42;;;10.10;99.90;;;;;;6341851;22;20026;-79
2022/10/26 06:13:19;;;;;;;40.15;22.38;;;10.10;99.90;;;;;;6341523;22;20060;-79
2022/10/26 06:16:21;;;;;;;28.77;16.45;;;10.10;99.90;;;;;;6341538;22;20006;-79
2022/10/26 06:19:17;;;;;;;27.05;15.52;;;10.20;99.90;;;;;;6313228;22;20403;-79
2022/10/26 06:22:20;;;;;;;31.77;15.27;;;10.20;99.90;;;;;;6313037;22;20068;-79
2022/10/26 06:24:59;;;;;;;34.67;17.52;;;10.20;99.90;;;;;;6312100;22;20021;-79
2022/10/26 06:27:45;;;;;;;26.10;15.15;;;10.30;99.90;;;;;;6313001;22;20045;-79
2022/10/26 06:30:11;;;;;;;24.73;15.18;;;10.30;99.90;;;;;;6340937;22;20461;-79
2022/10/26 06:32:44;;;;;;;26.90;16.35;;;10.30;99.90;;;;;;6313432;22;20061;-79
2022/10/26 06:35:17;;;;;;;26.48;15.60;;;10.30;99.90;;;;;;6313386;22;20015;-79
2022/10/26 06:37:44;;;;;;;23.95;14.55;;;10.40;99.90;;;;;;6339394;22;20019;-79
2022/10/26 06:40:13;;;;;;;25.52;15.70;;;10.40;99.90;;;;;;6341066;22;20019;-79
2022/10/26 06:42:39;;;;;;;26.75;15.63;;;10.40;99.90;;;;;;6341175;22;20011;-79
2022/10/26 06:45:13;;;;;;;25.08;14.98;;;10.40;99.90;;;;;;6313213;22;20037;-79
2022/10/26 06:48:04;;;;;;;27.48;14.98;;;10.40;99.90;;;;;;6340897;22;20018;-79
2022/10/26 06:50:41;;;;;;;29.52;16.73;;;10.40;99.90;;;;;;6340849;22;20011;-78
2022/10/26 06:53:31;;;;;;;31.67;17.58;;;10.50;99.90;;;;;;6339936;22;20023;-78
2022/10/26 06:55:58;;;;;;;34.03;19.35;;;10.50;99.90;;;;;;6313244;22;20434;-78
2022/10/26 06:58:29;;;;;;;28.23;16.25;;;10.50;99.90;;;;;;6340068;22;20451;-78
2022/10/26 07:00:55;;;;;;;31.52;17.08;;;10.50;99.90;;;;;;6340485;22;20019;-77
2022/10/26 07:03:24;;;;;;;27.48;16.20;;;10.50;99.90;;;;;;6340283;22;20030;-78
2022/10/26 07:05:50;;;;;;;23.08;14.10;;;10.50;99.90;;;;;;6340250;22;20473;-79
2022/10/26 07:08:15;;;;;;;33.13;15.80;;;10.60;99.90;;;;;;6340199;22;20014;-78
2022/10/26 07:10:42;;;;;;;25.42;15.75;;;10.70;99.90;;;;;;6339831;22;20050;-78
2022/10/26 07:13:13;;;;;;;24.17;14.82;;;10.70;99.90;;;;;;6312664;22;20054;-78
2022/10/26 07:15:39;;;;;;;25.65;15.68;;;10.70;99.90;;;;;;6339824;22;20404;-79
2022/10/26 07:18:06;;;;;;;27.67;16.20;;;10.70;99.90;;;;;;6340242;22;20023;-78
2022/10/26 07:20:40;;;;;;;28.63;17.10;;;10.80;99.90;;;;;;6312442;22;20015;-80
2022/10/26 07:23:07;;;;;;;28.75;16.83;;;10.80;99.90;;;;;;6312841;22;20047;-79
2022/10/26 07:25:37;;;;;;;25.42;15.40;;;10.80;99.90;;;;;;6340334;22;20010;-79
2022/10/26 07:28:04;;;;;;;25.55;16.13;;;10.80;99.90;;;;;;6312358;22;20015;-78
2022/10/26 07:30:32;;;;;;;26.85;14.95;;;10.90;99.90;;;;;;6311452;22;20088;-78
2022/10/26 07:33:02;;;;;;;24.40;15.05;;;10.90;99.90;;;;;;6340080;22;20018;-78
2022/10/26 07:35:31;;;;;;;24.25;14.07;;;11.00;99.90;;;;;;6340388;22;20011;-78
2022/10/26 07:37:57;;;;;;;21.35;13.45;;;11.00;99.90;;;;;;6312287;22;20020;-79
2022/10/26 07:40:23;;;;;;;22.98;14.02;;;11.00;99.90;;;;;;6340199;22;20089;-78
2022/10/26 07:42:49;;;;;;;22.02;14.38;;;11.00;99.90;;;;;;6312494;22;20022;-78
2022/10/26 07:45:15;;;;;;;25.67;14.35;;;11.10;99.90;;;;;;6312420;22;20018;-78
2022/10/26 07:47:41;;;;;;;23.77;14.88;;;11.10;99.90;;;;;;6340382;22;20011;-79
2022/10/26 07:50:07;;;;;;;22.98;13.38;;;11.20;99.90;;;;;;6313033;22;20053;-79
2022/10/26 07:52:42;;;;;;;21.92;13.45;;;11.20;99.90;;;;;;6339888;22;20022;-79
2022/10/26 07:55:09;;;;;;;24.42;13.45;;;11.20;99.90;;;;;;6339753;22;20019;-79
2022/10/26 07:57:35;;;;;;;22.95;12.98;;;11.30;99.90;;;;;;6312722;22;20438;-79
2022/10/26 08:00:02;;;;;;;20.77;12.75;;;11.30;99.90;;;;;;6338689;22;20019;-79
2022/10/26 08:02:31;;;;;;;23.70;13.55;;;11.40;99.90;;;;;;6340438;22;20034;-79
2022/10/26 08:04:56;;;;;;;22.40;13.38;;;11.40;99.90;;;;;;6339823;22;20018;-80
2022/10/26 08:07:22;;;;;;;26.08;12.00;;;11.50;99.90;;;;;;6313439;22;20021;-79
2022/10/26 08:09:48;;;;;;;20.40;12.07;;;11.40;99.90;;;;;;6339791;22;20026;-79
2022/10/26 08:12:15;;;;;;;21.90;12.57;;;11.50;99.90;;;;;;6340267;22;20092;-79
2022/10/26 08:14:41;;;;;;;21.00;12.82;;;11.50;99.90;;;;;;6312456;22;20010;-79
2022/10/26 08:17:07;;;;;;;21.30;11.98;;;11.60;99.90;;;;;;6312426;22;20166;-79
2022/10/26 08:19:33;;;;;;;22.38;12.65;;;11.60;99.90;;;;;;6339580;22;20339;-79
2022/10/26 08:21:58;;;;;;;17.40;11.38;;;11.60;99.90;;;;;;6339547;22;20093;-79
2022/10/26 08:24:24;;;;;;;22.13;12.35;;;11.70;99.90;;;;;;6339563;22;20097;-78
2022/10/26 08:26:50;;;;;;;20.55;11.52;;;11.80;99.90;;;;;;6311997;22;20037;-79
2022/10/26 08:29:15;;;;;;;17.67;12.00;;;12.00;99.90;;;;;;6312022;22;20097;-79
2022/10/26 08:31:41;;;;;;;18.33;11.38;;;12.00;99.90;;;;;;6340039;22;20422;-79
2022/10/26 08:34:07;;;;;;;22.60;11.32;;;12.10;99.90;;;;;;6312206;22;20091;-78
2022/10/26 08:36:33;;;;;;;18.77;10.18;;;12.10;99.90;;;;;;6339878;22;20026;-78
2022/10/26 08:38:58;;;;;;;17.33;11.02;;;12.20;99.90;;;;;;6339809;22;20385;-79
2022/10/26 08:41:41;;;;;;;20.42;10.55;;;12.30;99.90;;;;;;6312007;22;20026;-79
2022/10/26 08:44:20;;;;;;;;;;;12.30;99.90;;;;;;6313024;22;20015;-80
2022/10/26 08:46:52;;;;;;;16.30;9.15;;;12.40;99.90;;;;;;6339218;22;19918;-80
2022/10/26 08:49:31;;;;;;;16.67;9.60;;;12.50;99.90;;;;;;6312562;22;20053;-79
2022/10/26 08:52:00;;;;;;;19.90;10.40;;;12.60;99.90;;;;;;6286033;22;20393;-79
2022/10/26 08:54:39;;;;;;;16.05;9.10;;;12.60;99.90;;;;;;6339707;22;20010;-79
2022/10/26 08:57:21;;;;;;;18.00;10.43;;;12.70;99.90;;;;;;6312029;22;20343;-80
2022/10/26 08:59:54;;;;;;;19.27;8.75;;;12.70;99.90;;;;;;6312406;22;20015;-79
2022/10/26 09:02:26;;;;;;;13.60;7.80;;;12.70;99.90;;;;;;6311723;22;20104;-79
2022/10/26 09:04:53;;;;;;;16.83;8.05;;;12.80;99.90;;;;;;6339483;22;20081;-79
2022/10/26 09:07:51;;;;;;;15.68;9.98;;;12.90;99.90;;;;;;6339379;22;20454;-79
2022/10/26 09:10:52;;;;;;;15.57;8.60;;;13.00;99.90;;;;;;6312070;22;20025;-80
2022/10/26 09:13:45;;;;;;;18.50;9.00;;;13.10;99.90;;;;;;6307544;22;20014;-80
2022/10/26 09:16:38;;;;;;;13.13;8.17;;;13.10;99.90;;;;;;6339775;22;20023;-79
2022/10/26 09:19:22;;;;;;;15.32;8.23;;;13.30;99.90;;;;;;6311639;22;20311;-79
2022/10/26 09:22:11;;;;;;;15.38;8.95;;;13.40;99.90;;;;;;6338168;22;20382;-79
2022/10/26 09:24:56;;;;;;;12.13;7.57;;;13.50;99.90;;;;;;6311560;22;20011;-80
2022/10/26 09:28:11;;;;;;;13.50;8.07;;;13.60;99.90;;;;;;6312518;22;20023;-79
2022/10/26 09:30:37;;;;;;;14.13;8.27;;;13.70;99.90;;;;;;6310732;22;20019;-79
2022/10/26 09:33:15;;;;;;;12.60;7.38;;;13.80;99.90;;;;;;6311319;22;20015;-80
2022/10/26 09:35:58;;;;;;;12.68;7.47;;;13.90;99.90;;;;;;6311752;22;20013;-79
2022/10/26 09:38:29;;;;;;;;;;;14.00;99.90;;;;;;6312403;22;20018;-79
2022/10/26 09:41:00;;;;;;;14.93;6.97;;;14.10;99.90;;;;;;6339049;22;19918;-80
2022/10/26 09:43:29;;;;;;;14.02;7.32;;;14.20;99.90;;;;;;6311345;22;20015;-80
2022/10/26 09:45:54;;;;;;;11.88;6.32;;;14.30;99.90;;;;;;6311679;22;20014;-79
2022/10/26 09:48:30;;;;;;;14.18;6.70;;;14.40;99.90;;;;;;6339150;22;20015;-79
2022/10/26 09:50:56;;;;;;;12.52;6.63;;;14.50;99.90;;;;;;6339194;22;20018;-79
2022/10/26 09:53:22;;;;;;;12.32;5.65;;;14.60;99.90;;;;;;6339510;22;20007;-79
2022/10/26 09:55:52;;;;;;;12.95;6.40;;;14.80;99.90;;;;;;6339523;22;20342;-80
2022/10/26 09:58:27;;;;;;;10.30;5.22;;;14.90;99.90;;;;;;6339132;22;20085;-80
2022/10/26 10:00:53;;;;;;;9.73;5.85;;;15.00;99.90;;;;;;6339459;22;20011;-79
2022/10/26 10:03:27;;;;;;;11.70;6.30;;;15.00;99.90;;;;;;6339459;22;20006;-78
2022/10/26 10:06:13;;;;;;;12.20;6.50;;;15.10;99.90;;;;;;6339115;22;20435;-79
2022/10/26 10:08:39;;;;;;;14.13;6.35;;;15.10;99.90;;;;;;6311400;22;20013;-79
2022/10/26 10:11:06;;;;;;;20.05;5.90;;;15.20;99.90;;;;;;6339127;22;20097;-79
2022/10/26 10:13:34;;;;;;;10.75;6.00;;;15.30;99.90;;;;;;6311431;22;20019;-79
2022/10/26 10:16:18;;;;;;;11.75;5.30;;;15.40;99.90;;;;;;6339107;22;20060;-79
2022/10/26 10:18:55;;;;;;;9.77;5.50;;;15.50;99.90;;;;;;6311345;22;20107;-79
2022/10/26 10:21:39;;;;;;;12.90;5.43;;;15.60;99.90;;;;;;6338826;22;20021;-79
2022/10/26 10:24:31;;;;;;;10.98;5.60;;;15.70;99.90;;;;;;6339489;22;20072;-80
2022/10/26 10:27:02;;;;;;;10.57;4.95;;;15.80;99.90;;;;;;6311345;22;20094;-79
2022/10/26 10:29:39;;;;;;;11.68;5.78;;;15.80;99.90;;;;;;6339417;22;20014;-79
2022/10/26 10:32:05;;;;;;;8.80;4.53;;;15.80;99.90;;;;;;6310826;22;20023;-80
2022/10/26 10:34:32;;;;;;;10.77;4.80;;;15.80;99.90;;;;;;6338974;22;20458;-79
2022/10/26 10:36:59;;;;;;;9.35;4.43;;;15.60;99.90;;;;;;6339189;22;20015;-80
2022/10/26 10:39:41;;;;;;;8.80;4.35;;;15.70;99.90;;;;;;6339118;22;20015;-79
2022/10/26 10:42:19;;;;;;;12.60;4.53;;;15.60;99.90;;;;;;6339224;22;20014;-79
2022/10/26 10:44:49;;;;;;;9.20;4.50;;;15.70;99.90;;;;;;6311193;22;20014;-79
2022/10/26 10:47:56;;;;;;;8.77;4.65;;;15.70;99.90;;;;;;6339157;22;20026;-80
2022/10/26 10:50:22;;;;;;;8.63;4.55;;;15.70;99.90;;;;;;6326631;22;20014;-80
2022/10/26 10:52:48;;;;;;;9.32;4.60;;;15.70;99.90;;;;;;6340402;22;20066;-79
2022/10/26 10:55:13;;;;;;;8.80;3.95;;;15.70;99.90;;;;;;6340958;22;20018;-79
2022/10/26 10:58:26;;;;;;;11.90;4.85;;;15.80;99.90;;;;;;6313049;22;20023;-79
2022/10/26 11:00:55;;;;;;;13.40;6.00;;;15.90;99.90;;;;;;6244728;23;20543;-79
2022/10/26 11:03:43;;;;;;;8.68;4.60;;;15.90;99.90;;;;;;6245339;23;20043;-78
2022/10/26 11:06:15;;;;;;;12.68;4.70;;;16.00;99.90;;;;;;6305484;22;20019;-79
2022/10/26 11:08:52;;;;;;;12.68;4.40;;;16.00;99.90;;;;;;6340879;22;20029;-79
2022/10/26 11:11:39;;;;;;;8.63;4.15;;;16.20;99.90;;;;;;6340880;22;20015;-80
2022/10/26 11:14:11;;;;;;;11.27;5.47;;;16.20;99.90;;;;;;6312907;22;20500;-79
2022/10/26 11:16:48;;;;;;;9.80;4.45;;;16.20;99.90;;;;;;6312832;22;20018;-79
2022/10/26 11:19:30;;;;;;;8.68;4.18;;;16.20;99.90;;;;;;6313026;22;20026;-79
2022/10/26 11:21:56;;;;;;;6.50;4.37;;;16.20;99.90;;;;;;6312682;22;20021;-79
2022/10/26 11:24:30;;;;;;;10.75;4.85;;;16.20;99.90;;;;;;6312825;22;20282;-79
2022/10/26 11:27:16;;;;;;;8.32;4.32;;;16.30;99.90;;;;;;6340572;22;20056;-79
2022/10/26 11:30:12;;;;;;;7.35;5.40;;;16.30;99.90;;;;;;6340727;22;20015;-79
2022/10/26 11:32:56;;;;;;;9.18;4.45;;;16.40;99.90;;;;;;6340494;22;20019;-79
2022/10/26 11:35:36;;;;;;;10.20;5.05;;;16.50;99.90;;;;;;6340586;22;20015;-79
2022/10/26 11:38:02;;;;;;;11.82;5.70;;;16.60;99.90;;;;;;6340638;22;20018;-79
2022/10/26 11:40:35;;;;;;;9.13;5.53;;;16.80;99.90;;;;;;6340401;22;20122;-79
2022/10/26 11:43:20;;;;;;;8.52;4.57;;;16.90;99.90;;;;;;6312786;22;20442;-80
2022/10/26 11:46:04;;;;;;;10.80;5.32;;;16.90;99.90;;;;;;6340062;22;20449;-80
2022/10/26 11:49:01;;;;;;;9.13;4.80;;;17.00;99.90;;;;;;6340556;22;20015;-79
2022/10/26 11:51:57;;;;;;;8.10;4.43;;;17.10;99.90;;;;;;6340362;22;20022;-78
2022/10/26 11:54:44;;;;;;;10.63;4.22;;;17.20;99.90;;;;;;6340514;22;20015;-80
2022/10/26 11:57:11;;;;;;;15.95;5.30;;;17.30;99.90;;;;;;6312549;22;20014;-79
2022/10/26 11:59:43;;;;;;;10.52;5.93;;;17.30;99.90;;;;;;6340438;22;20007;-79
2022/10/26 12:02:19;;;;;;;8.88;5.57;;;17.40;99.90;;;;;;6340465;22;20014;-79
2022/10/26 12:05:01;;;;;;;10.68;5.85;;;17.40;99.90;;;;;;6312438;22;20018;-79
2022/10/26 12:07:32;;;;;;;12.25;5.95;;;17.50;99.90;;;;;;6340400;22;20107;-79
2022/10/26 12:10:00;;;;;;;10.52;5.05;;;17.50;99.90;;;;;;6312456;22;20047;-79
2022/10/26 12:12:34;;;;;;;7.40;5.57;;;17.40;99.90;;;;;;6339982;22;20099;-79
2022/10/26 12:15:09;;;;;;;9.45;5.82;;;17.40;99.90;;;;;;6340258;22;20081;-79
2022/10/26 12:17:57;;;;;;;12.27;5.43;;;17.50;99.90;;;;;;6312383;22;20090;-79
2022/10/26 12:21:04;;;;;;;12.52;5.65;;;17.50;99.90;;;;;;6297095;22;20327;-79
2022/10/26 12:23:36;;;;;;;9.93;5.07;;;17.50;99.90;;;;;;6312252;22;20389;-79
2022/10/26 12:26:20;;;;;;;10.38;4.75;;;17.50;99.90;;;;;;6340338;22;20014;-80
2022/10/26 12:28:46;;;;;;;12.65;6.13;;;17.40;99.90;;;;;;6339766;22;20368;-80
2022/10/26 12:31:36;;;;;;;10.52;5.63;;;17.40;99.90;;;;;;6312188;22;20446;-80
2022/10/26 12:34:14;;;;;;;9.95;5.28;;;17.40;99.90;;;;;;6312185;22;20094;-80
2022/10/26 12:36:55;;;;;;;13.07;5.75;;;17.40;99.90;;;;;;6339707;22;20308;-80
2022/10/26 12:39:31;;;;;;;13.35;5.88;;;17.30;99.90;;;;;;6312208;22;20026;-79
2022/10/26 12:42:09;;;;;;;10.00;5.82;;;17.20;99.90;;;;;;6339977;22;20017;-79
2022/10/26 12:44:47;;;;;;;13.15;6.68;;;17.20;99.90;;;;;;6339670;22;20056;-79
2022/10/26 12:47:28;;;;;;;12.73;5.80;;;17.10;99.90;;;;;;6339647;22;20523;-80
2022/10/26 12:50:00;;;;;;;11.57;6.82;;;17.20;99.90;;;;;;6312133;22;20018;-80
2022/10/26 12:52:30;;;;;;;15.55;7.25;;;17.20;99.90;;;;;;6339909;22;20089;-79
2022/10/26 12:55:22;;;;;;;15.60;8.13;;;17.30;99.90;;;;;;6339896;22;20014;-80
2022/10/26 12:57:50;;;;;;;13.60;8.25;;;17.30;99.90;;;;;;6339969;22;20015;-79
2022/10/26 13:00:21;;;;;;;13.35;7.63;;;17.30;99.90;;;;;;6339499;22;20076;-80
2022/10/26 13:03:05;;;;;;;13.93;8.25;;;17.30;99.90;;;;;;6339807;22;20018;-79
2022/10/26 13:05:57;;;;;;;16.65;8.50;;;17.30;99.90;;;;;;6311916;22;20443;-80